sensor_id;sensor_type;location;lat;lon;timestamp;pressure;altitude;pressure_sealevel;temperature;humidity
11347;BME280;5728;42.722;23.258;2023-07-31T00:01:16;94435.16;;;20.64;89.59
11347;BME280;5728;42.722;23.258;2023-07-31T00:03:43;94435.50;;;20.58;89.24
11347;BME280;5728;42.722;23.258;2023-07-31T00:06:13;94439.47;;;20.51;89.41
11347;BME280;5728;42.722;23.258;2023-07-31T00:08:40;94431.56;;;20.65;88.81
11347;BME280;5728;42.722;23.258;2023-07-31T00:11:06;94424.63;;;20.64;89.26
11347;BME280;5728;42.722;23.258;2023-07-31T00:13:35;94436.25;;;20.60;89.88
11347;BME280;5728;42.722;23.258;2023-07-31T00:16:01;94427.63;;;20.72;89.02
11347;BME280;5728;42.722;23.258;2023-07-31T00:18:28;94424.50;;;20.52;90.10
11347;BME280;5728;42.722;23.258;2023-07-31T00:20:55;94422.13;;;20.47;91.01
11347;BME280;5728;42.722;23.258;2023-07-31T00:23:22;94420.31;;;20.33;92.24
11347;BME280;5728;42.722;23.258;2023-07-31T00:25:49;94417.72;;;20.48;92.75
11347;BME280;5728;42.722;23.258;2023-07-31T00:28:15;94405.38;;;20.34;93.85
11347;BME280;5728;42.722;23.258;2023-07-31T00:30:43;94399.91;;;20.37;94.05
11347;BME280;5728;42.722;23.258;2023-07-31T00:33:10;94397.75;;;20.14;96.04
11347;BME280;5728;42.722;23.258;2023-07-31T00:35:37;94388.41;;;20.24;96.08
11347;BME280;5728;42.722;23.258;2023-07-31T00:38:04;94395.94;;;20.30;96.27
11347;BME280;5728;42.722;23.258;2023-07-31T00:40:34;94384.16;;;20.21;96.24
11347;BME280;5728;42.722;23.258;2023-07-31T00:43:01;94393.00;;;20.05;97.79
11347;BME280;5728;42.722;23.258;2023-07-31T00:45:28;94420.94;;;20.07;98.44
11347;BME280;5728;42.722;23.258;2023-07-31T00:47:57;94389.97;;;19.97;99.54
11347;BME280;5728;42.722;23.258;2023-07-31T00:50:25;94391.84;;;19.95;99.98
11347;BME280;5728;42.722;23.258;2023-07-31T00:52:52;94400.00;;;19.90;100.00
11347;BME280;5728;42.722;23.258;2023-07-31T00:55:19;94392.53;;;19.83;100.00
11347;BME280;5728;42.722;23.258;2023-07-31T00:57:48;94384.91;;;19.78;100.00
11347;BME280;5728;42.722;23.258;2023-07-31T01:00:15;94384.81;;;19.80;100.00
11347;BME280;5728;42.722;23.258;2023-07-31T01:02:42;94392.53;;;19.83;100.00
11347;BME280;5728;42.722;23.258;2023-07-31T01:05:11;94402.16;;;19.84;100.00
11347;BME280;5728;42.722;23.258;2023-07-31T01:07:42;94384.56;;;19.84;100.00
11347;BME280;5728;42.722;23.258;2023-07-31T01:10:15;94389.16;;;19.81;100.00
11347;BME280;5728;42.722;23.258;2023-07-31T01:12:45;94385.56;;;19.82;100.00
11347;BME280;5728;42.722;23.258;2023-07-31T01:15:12;94371.44;;;19.68;100.00
11347;BME280;5728;42.722;23.258;2023-07-31T01:17:41;94377.53;;;19.69;100.00
11347;BME280;5728;42.722;23.258;2023-07-31T01:20:14;94391.72;;;19.66;100.00
11347;BME280;5728;42.722;23.258;2023-07-31T01:22:54;94381.03;;;19.69;100.00
11347;BME280;5728;42.722;23.258;2023-07-31T01:25:44;94378.81;;;19.78;100.00
11347;BME280;5728;42.722;23.258;2023-07-31T01:28:13;94372.53;;;19.80;100.00
11347;BME280;5728;42.722;23.258;2023-07-31T01:30:43;94363.13;;;19.60;100.00
11347;BME280;5728;42.722;23.258;2023-07-31T01:33:11;94366.19;;;19.68;100.00
11347;BME280;5728;42.722;23.258;2023-07-31T01:35:38;94371.44;;;19.68;100.00
11347;BME280;5728;42.722;23.258;2023-07-31T01:38:05;94372.19;;;19.70;100.00
11347;BME280;5728;42.722;23.258;2023-07-31T01:40:32;94369.31;;;19.59;100.00
11347;BME280;5728;42.722;23.258;2023-07-31T01:43:00;94373.06;;;19.55;100.00
11347;BME280;5728;42.722;23.258;2023-07-31T01:45:27;94364.59;;;19.50;100.00
11347;BME280;5728;42.722;23.258;2023-07-31T01:47:53;94376.28;;;19.45;100.00
11347;BME280;5728;42.722;23.258;2023-07-31T01:50:20;94369.16;;;19.62;100.00
11347;BME280;5728;42.722;23.258;2023-07-31T01:52:47;94387.13;;;19.54;100.00
11347;BME280;5728;42.722;23.258;2023-07-31T01:55:14;94380.78;;;19.43;100.00
11347;BME280;5728;42.722;23.258;2023-07-31T01:57:40;94383.06;;;19.49;100.00
11347;BME280;5728;42.722;23.258;2023-07-31T02:00:10;94392.75;;;19.48;100.00
11347;BME280;5728;42.722;23.258;2023-07-31T02:02:36;94384.09;;;19.46;100.00
11347;BME280;5728;42.722;23.258;2023-07-31T02:05:04;94387.84;;;19.42;100.00
11347;BME280;5728;42.722;23.258;2023-07-31T02:07:31;94382.03;;;19.51;100.00
11347;BME280;5728;42.722;23.258;2023-07-31T02:09:58;94375.09;;;19.66;100.00
11347;BME280;5728;42.722;23.258;2023-07-31T02:12:24;94377.38;;;19.56;100.00
11347;BME280;5728;42.722;23.258;2023-07-31T02:14:51;94396.63;;;19.72;100.00
11347;BME280;5728;42.722;23.258;2023-07-31T02:17:19;94381.69;;;19.89;100.00
11347;BME280;5728;42.722;23.258;2023-07-31T02:19:46;94381.44;;;19.78;100.00
11347;BME280;5728;42.722;23.258;2023-07-31T02:22:13;94386.53;;;19.81;100.00
11347;BME280;5728;42.722;23.258;2023-07-31T02:24:40;94384.78;;;19.95;100.00
11347;BME280;5728;42.722;23.258;2023-07-31T02:27:07;94382.84;;;19.99;100.00
11347;BME280;5728;42.722;23.258;2023-07-31T02:29:33;94391.66;;;19.98;100.00
11347;BME280;5728;42.722;23.258;2023-07-31T02:32:00;94383.06;;;20.10;100.00
11347;BME280;5728;42.722;23.258;2023-07-31T02:34:28;94375.44;;;20.05;100.00
11347;BME280;5728;42.722;23.258;2023-07-31T02:36:55;94383.16;;;20.08;100.00
11347;BME280;5728;42.722;23.258;2023-07-31T02:39:22;94383.22;;;20.07;100.00
11347;BME280;5728;42.722;23.258;2023-07-31T02:41:49;94392.09;;;20.06;100.00
11347;BME280;5728;42.722;23.258;2023-07-31T02:44:15;94384.53;;;20.00;100.00
11347;BME280;5728;42.722;23.258;2023-07-31T02:46:42;94391.66;;;19.98;100.00
11347;BME280;5728;42.722;23.258;2023-07-31T02:49:09;94393.38;;;19.99;100.00
11347;BME280;5728;42.722;23.258;2023-07-31T02:51:37;94394.19;;;19.99;100.00
11347;BME280;5728;42.722;23.258;2023-07-31T02:54:04;94392.84;;;20.08;100.00
11347;BME280;5728;42.722;23.258;2023-07-31T02:56:31;94401.16;;;20.00;100.00
11347;BME280;5728;42.722;23.258;2023-07-31T02:58:58;94394.34;;;20.12;100.00
11347;BME280;5728;42.722;23.258;2023-07-31T03:01:25;94403.66;;;20.17;100.00
11347;BME280;5728;42.722;23.258;2023-07-31T03:03:51;94408.53;;;20.25;100.00
11347;BME280;5728;42.722;23.258;2023-07-31T03:06:18;94409.59;;;20.37;100.00
11347;BME280;5728;42.722;23.258;2023-07-31T03:08:46;94399.59;;;20.27;100.00
11347;BME280;5728;42.722;23.258;2023-07-31T03:11:13;94409.47;;;20.24;100.00
11347;BME280;5728;42.722;23.258;2023-07-31T03:13:40;94413.09;;;20.21;100.00
11347;BME280;5728;42.722;23.258;2023-07-31T03:16:07;94415.22;;;20.30;100.00
11347;BME280;5728;42.722;23.258;2023-07-31T03:18:34;94416.25;;;20.28;100.00
11347;BME280;5728;42.722;23.258;2023-07-31T03:21:01;94412.94;;;20.24;100.00
11347;BME280;5728;42.722;23.258;2023-07-31T03:23:28;94414.94;;;20.35;100.00
11347;BME280;5728;42.722;23.258;2023-07-31T03:25:57;94403.50;;;20.36;100.00
11347;BME280;5728;42.722;23.258;2023-07-31T03:28:23;94406.84;;;20.24;100.00
11347;BME280;5728;42.722;23.258;2023-07-31T03:30:51;94413.88;;;20.23;100.00
11347;BME280;5728;42.722;23.258;2023-07-31T03:33:18;94421.34;;;20.31;100.00
11347;BME280;5728;42.722;23.258;2023-07-31T03:35:45;94425.84;;;20.29;100.00
11347;BME280;5728;42.722;23.258;2023-07-31T03:38:11;94440.81;;;20.28;100.00
11347;BME280;5728;42.722;23.258;2023-07-31T03:40:38;94435.59;;;20.27;100.00
11347;BME280;5728;42.722;23.258;2023-07-31T03:43:06;94430.16;;;20.30;100.00
11347;BME280;5728;42.722;23.258;2023-07-31T03:45:33;94439.03;;;20.29;100.00
11347;BME280;5728;42.722;23.258;2023-07-31T03:48:00;94446.47;;;20.37;100.00
11347;BME280;5728;42.722;23.258;2023-07-31T03:50:27;94433.38;;;20.35;100.00
11347;BME280;5728;42.722;23.258;2023-07-31T03:52:54;94445.25;;;20.42;100.00
11347;BME280;5728;42.722;23.258;2023-07-31T03:55:21;94439.69;;;20.32;100.00
11347;BME280;5728;42.722;23.258;2023-07-31T03:57:48;94448.53;;;20.31;100.00
11347;BME280;5728;42.722;23.258;2023-07-31T04:00:16;94470.97;;;20.23;100.00
11347;BME280;5728;42.722;23.258;2023-07-31T04:02:43;94444.63;;;20.23;100.00
11347;BME280;5728;42.722;23.258;2023-07-31T04:05:10;94448.88;;;20.10;100.00
11347;BME280;5728;42.722;23.258;2023-07-31T04:07:37;94479.53;;;20.26;100.00
11347;BME280;5728;42.722;23.258;2023-07-31T04:10:04;94454.72;;;20.15;100.00
11347;BME280;5728;42.722;23.258;2023-07-31T04:12:31;94452.56;;;20.37;100.00
11347;BME280;5728;42.722;23.258;2023-07-31T04:14:58;94446.47;;;20.37;100.00
11347;BME280;5728;42.722;23.258;2023-07-31T04:17:26;94458.66;;;20.53;100.00
11347;BME280;5728;42.722;23.258;2023-07-31T04:19:53;94455.09;;;20.54;100.00
11347;BME280;5728;42.722;23.258;2023-07-31T04:22:20;94445.19;;;20.44;100.00
11347;BME280;5728;42.722;23.258;2023-07-31T04:24:47;94459.94;;;20.46;100.00
11347;BME280;5728;42.722;23.258;2023-07-31T04:27:14;94460.53;;;20.51;100.00
11347;BME280;5728;42.722;23.258;2023-07-31T04:29:40;94460.47;;;20.37;100.00
11347;BME280;5728;42.722;23.258;2023-07-31T04:32:08;94456.75;;;20.55;100.00
11347;BME280;5728;42.722;23.258;2023-07-31T04:34:36;94462.44;;;20.63;99.64
11347;BME280;5728;42.722;23.258;2023-07-31T04:37:03;94466.00;;;20.62;99.90
11347;BME280;5728;42.722;23.258;2023-07-31T04:39:30;94472.88;;;20.65;99.63
11347;BME280;5728;42.722;23.258;2023-07-31T04:41:57;94459.38;;;20.85;98.00
11347;BME280;5728;42.722;23.258;2023-07-31T04:44:23;94464.75;;;20.97;97.01
11347;BME280;5728;42.722;23.258;2023-07-31T04:46:50;94465.66;;;20.82;96.58
11347;BME280;5728;42.722;23.258;2023-07-31T04:49:17;94464.03;;;21.10;96.56
11347;BME280;5728;42.722;23.258;2023-07-31T04:51:45;94461.50;;;21.08;95.49
11347;BME280;5728;42.722;23.258;2023-07-31T04:54:12;94459.88;;;21.20;95.58
11347;BME280;5728;42.722;23.258;2023-07-31T04:56:40;94458.75;;;21.38;94.23
11347;BME280;5728;42.722;23.258;2023-07-31T04:59:07;94454.72;;;21.32;94.05
11347;BME280;5728;42.722;23.258;2023-07-31T05:01:37;94454.22;;;21.40;93.64
11347;BME280;5728;42.722;23.258;2023-07-31T05:04:03;94451.50;;;21.55;92.45
11347;BME280;5728;42.722;23.258;2023-07-31T05:06:30;94459.28;;;21.71;92.26
11347;BME280;5728;42.722;23.258;2023-07-31T05:08:58;94470.22;;;21.79;90.82
11347;BME280;5728;42.722;23.258;2023-07-31T05:11:25;94460.06;;;21.59;91.39
11347;BME280;5728;42.722;23.258;2023-07-31T05:13:52;94457.31;;;21.75;91.10
11347;BME280;5728;42.722;23.258;2023-07-31T05:16:19;94457.81;;;21.67;91.54
11347;BME280;5728;42.722;23.258;2023-07-31T05:18:45;94458.38;;;21.58;92.43
11347;BME280;5728;42.722;23.258;2023-07-31T05:21:12;94453.13;;;21.44;91.56
11347;BME280;5728;42.722;23.258;2023-07-31T05:23:39;94443.84;;;21.65;90.27
11347;BME280;5728;42.722;23.258;2023-07-31T05:26:07;94461.19;;;21.55;90.67
11347;BME280;5728;42.722;23.258;2023-07-31T05:28:35;94450.63;;;21.55;89.63
11347;BME280;5728;42.722;23.258;2023-07-31T05:31:02;94455.28;;;22.06;88.41
11347;BME280;5728;42.722;23.258;2023-07-31T05:33:30;94453.28;;;22.37;85.87
11347;BME280;5728;42.722;23.258;2023-07-31T05:35:57;94465.63;;;22.36;85.97
11347;BME280;5728;42.722;23.258;2023-07-31T05:38:24;94456.00;;;22.08;85.27
11347;BME280;5728;42.722;23.258;2023-07-31T05:40:50;94459.50;;;22.36;83.52
11347;BME280;5728;42.722;23.258;2023-07-31T05:43:18;94459.38;;;22.24;83.35
11347;BME280;5728;42.722;23.258;2023-07-31T05:45:45;94460.66;;;22.71;81.93
11347;BME280;5728;42.722;23.258;2023-07-31T05:48:12;94459.19;;;22.67;81.32
11347;BME280;5728;42.722;23.258;2023-07-31T05:50:38;94455.81;;;22.65;79.23
11347;BME280;5728;42.722;23.258;2023-07-31T05:53:05;94469.28;;;22.87;79.71
11347;BME280;5728;42.722;23.258;2023-07-31T05:55:33;94469.91;;;22.91;78.39
11347;BME280;5728;42.722;23.258;2023-07-31T05:58:00;94462.38;;;22.72;79.45
11347;BME280;5728;42.722;23.258;2023-07-31T06:00:28;94467.84;;;22.69;79.16
11347;BME280;5728;42.722;23.258;2023-07-31T06:02:55;94476.13;;;22.77;79.22
11347;BME280;5728;42.722;23.258;2023-07-31T06:05:22;94475.84;;;23.19;77.48
11347;BME280;5728;42.722;23.258;2023-07-31T06:07:48;94478.16;;;23.24;76.06
11347;BME280;5728;42.722;23.258;2023-07-31T06:10:15;94480.41;;;23.17;76.74
11347;BME280;5728;42.722;23.258;2023-07-31T06:12:42;94481.25;;;23.05;76.81
11347;BME280;5728;42.722;23.258;2023-07-31T06:15:09;94483.41;;;23.51;74.42
11347;BME280;5728;42.722;23.258;2023-07-31T06:17:37;94490.25;;;23.28;74.93
11347;BME280;5728;42.722;23.258;2023-07-31T06:20:06;94481.44;;;23.02;75.97
11347;BME280;5728;42.722;23.258;2023-07-31T06:22:33;94481.25;;;23.05;75.63
11347;BME280;5728;42.722;23.258;2023-07-31T06:25:00;94485.44;;;22.82;76.57
11347;BME280;5728;42.722;23.258;2023-07-31T06:27:27;94481.75;;;22.85;76.66
11347;BME280;5728;42.722;23.258;2023-07-31T06:29:53;94477.50;;;22.70;76.69
11347;BME280;5728;42.722;23.258;2023-07-31T06:32:20;94486.00;;;22.61;76.92
11347;BME280;5728;42.722;23.258;2023-07-31T06:34:48;94485.22;;;22.73;76.68
11347;BME280;5728;42.722;23.258;2023-07-31T06:37:16;94498.38;;;23.12;76.18
11347;BME280;5728;42.722;23.258;2023-07-31T06:39:43;94479.94;;;22.73;76.18
11347;BME280;5728;42.722;23.258;2023-07-31T06:42:10;94487.03;;;22.85;75.10
11347;BME280;5728;42.722;23.258;2023-07-31T06:44:37;94505.16;;;23.16;74.62
11347;BME280;5728;42.722;23.258;2023-07-31T06:47:04;94490.31;;;22.88;73.75
11347;BME280;5728;42.722;23.258;2023-07-31T06:49:34;94509.97;;;22.84;73.20
11347;BME280;5728;42.722;23.258;2023-07-31T06:52:02;94498.19;;;23.03;73.55
11347;BME280;5728;42.722;23.258;2023-07-31T06:54:29;94491.09;;;23.28;72.26
11347;BME280;5728;42.722;23.258;2023-07-31T06:56:55;94495.88;;;23.61;71.08
11347;BME280;5728;42.722;23.258;2023-07-31T06:59:22;94488.41;;;24.28;68.99
11347;BME280;5728;42.722;23.258;2023-07-31T07:01:49;94480.50;;;23.79;69.19
11347;BME280;5728;42.722;23.258;2023-07-31T07:04:16;94489.59;;;23.75;69.73
11347;BME280;5728;42.722;23.258;2023-07-31T07:06:42;94489.59;;;23.75;70.01
11347;BME280;5728;42.722;23.258;2023-07-31T07:09:10;94480.34;;;23.93;70.07
11347;BME280;5728;42.722;23.258;2023-07-31T07:11:37;94484.53;;;24.21;67.92
11347;BME280;5728;42.722;23.258;2023-07-31T07:14:04;94472.53;;;24.51;67.26
11347;BME280;5728;42.722;23.258;2023-07-31T07:16:31;94479.75;;;24.49;67.54
11347;BME280;5728;42.722;23.258;2023-07-31T07:18:57;94480.06;;;24.45;66.97
11347;BME280;5728;42.722;23.258;2023-07-31T07:21:24;94477.31;;;23.86;68.26
11347;BME280;5728;42.722;23.258;2023-07-31T07:23:51;94473.22;;;24.06;69.03
11347;BME280;5728;42.722;23.258;2023-07-31T07:26:19;94470.41;;;23.96;68.70
11347;BME280;5728;42.722;23.258;2023-07-31T07:28:46;94478.44;;;23.95;68.92
11347;BME280;5728;42.722;23.258;2023-07-31T07:31:13;94463.09;;;23.87;68.52
11347;BME280;5728;42.722;23.258;2023-07-31T07:33:39;94462.69;;;24.17;67.68
11347;BME280;5728;42.722;23.258;2023-07-31T07:36:06;94470.38;;;24.09;66.88
11347;BME280;5728;42.722;23.258;2023-07-31T07:38:35;94480.31;;;24.42;66.54
11347;BME280;5728;42.722;23.258;2023-07-31T07:41:02;94473.19;;;24.90;65.18
11347;BME280;5728;42.722;23.258;2023-07-31T07:43:30;94470.50;;;24.31;65.68
11347;BME280;5728;42.722;23.258;2023-07-31T07:45:57;94473.78;;;24.82;64.07
11347;BME280;5728;42.722;23.258;2023-07-31T07:48:24;94469.97;;;24.97;63.58
11347;BME280;5728;42.722;23.258;2023-07-31T07:50:51;94473.81;;;24.69;64.61
11347;BME280;5728;42.722;23.258;2023-07-31T07:53:18;94470.75;;;24.63;65.27
11347;BME280;5728;42.722;23.258;2023-07-31T07:55:45;94471.44;;;24.78;64.44
11347;BME280;5728;42.722;23.258;2023-07-31T07:58:11;94489.63;;;25.06;63.28
11347;BME280;5728;42.722;23.258;2023-07-31T08:00:40;94482.97;;;25.68;60.00
11347;BME280;5728;42.722;23.258;2023-07-31T08:03:06;94479.72;;;24.97;61.39
11347;BME280;5728;42.722;23.258;2023-07-31T08:05:33;94483.09;;;24.99;61.15
11347;BME280;5728;42.722;23.258;2023-07-31T08:08:00;94479.63;;;24.74;61.66
11347;BME280;5728;42.722;23.258;2023-07-31T08:10:27;94493.34;;;24.92;61.75
11347;BME280;5728;42.722;23.258;2023-07-31T08:12:53;94481.97;;;25.36;60.19
11347;BME280;5728;42.722;23.258;2023-07-31T08:15:20;94471.41;;;25.80;59.72
11347;BME280;5728;42.722;23.258;2023-07-31T08:17:48;94482.41;;;26.52;56.71
11347;BME280;5728;42.722;23.258;2023-07-31T08:20:15;94481.19;;;25.69;58.05
11347;BME280;5728;42.722;23.258;2023-07-31T08:22:42;94484.28;;;26.40;56.50
11347;BME280;5728;42.722;23.258;2023-07-31T08:25:09;94490.56;;;26.82;56.40
11347;BME280;5728;42.722;23.258;2023-07-31T08:27:36;94494.38;;;26.57;55.67
11347;BME280;5728;42.722;23.258;2023-07-31T08:30:03;94472.69;;;27.26;53.03
11347;BME280;5728;42.722;23.258;2023-07-31T08:32:30;94484.78;;;26.77;52.91
11347;BME280;5728;42.722;23.258;2023-07-31T08:34:58;94496.03;;;26.16;54.69
11347;BME280;5728;42.722;23.258;2023-07-31T08:37:25;94480.66;;;26.73;54.17
11347;BME280;5728;42.722;23.258;2023-07-31T08:39:52;94473.59;;;27.15;53.29
11347;BME280;5728;42.722;23.258;2023-07-31T08:42:20;94484.53;;;26.80;53.97
11347;BME280;5728;42.722;23.258;2023-07-31T08:44:47;94484.81;;;26.98;53.41
11347;BME280;5728;42.722;23.258;2023-07-31T08:47:15;94480.00;;;26.49;54.56
11347;BME280;5728;42.722;23.258;2023-07-31T08:49:43;94486.47;;;26.78;53.66
11347;BME280;5728;42.722;23.258;2023-07-31T08:52:14;94480.47;;;27.17;51.89
11347;BME280;5728;42.722;23.258;2023-07-31T08:54:41;94475.91;;;26.88;52.93
11347;BME280;5728;42.722;23.258;2023-07-31T08:57:09;94485.53;;;26.57;53.10
11347;BME280;5728;42.722;23.258;2023-07-31T08:59:37;94470.13;;;26.40;54.62
11347;BME280;5728;42.722;23.258;2023-07-31T09:02:07;94482.50;;;26.19;55.51
11347;BME280;5728;42.722;23.258;2023-07-31T09:04:34;94480.38;;;26.55;53.56
11347;BME280;5728;42.722;23.258;2023-07-31T09:07:03;94480.44;;;26.65;53.63
11347;BME280;5728;42.722;23.258;2023-07-31T09:09:31;94478.28;;;27.43;52.13
11347;BME280;5728;42.722;23.258;2023-07-31T09:11:58;94490.91;;;27.30;51.62
11347;BME280;5728;42.722;23.258;2023-07-31T09:14:26;94476.88;;;27.07;52.42
11347;BME280;5728;42.722;23.258;2023-07-31T09:16:54;94472.09;;;27.43;52.57
11347;BME280;5728;42.722;23.258;2023-07-31T09:19:29;94455.50;;;26.77;53.24
11347;BME280;5728;42.722;23.258;2023-07-31T09:21:56;94464.81;;;26.72;54.23
11347;BME280;5728;42.722;23.258;2023-07-31T09:24:27;94461.94;;;27.37;52.65
11347;BME280;5728;42.722;23.258;2023-07-31T09:26:56;94468.75;;;27.41;51.46
11347;BME280;5728;42.722;23.258;2023-07-31T09:29:24;94452.88;;;27.18;52.25
11347;BME280;5728;42.722;23.258;2023-07-31T09:31:52;94460.13;;;27.58;50.37
11347;BME280;5728;42.722;23.258;2023-07-31T09:34:20;94457.19;;;27.91;48.64
11347;BME280;5728;42.722;23.258;2023-07-31T09:36:54;94440.16;;;28.03;49.77
11347;BME280;5728;42.722;23.258;2023-07-31T09:39:22;94447.31;;;27.82;48.50
11347;BME280;5728;42.722;23.258;2023-07-31T09:41:55;94450.28;;;27.79;49.17
11347;BME280;5728;42.722;23.258;2023-07-31T09:44:37;94457.16;;;27.81;48.14
11347;BME280;5728;42.722;23.258;2023-07-31T09:47:05;94450.31;;;27.89;47.59
11347;BME280;5728;42.722;23.258;2023-07-31T09:49:32;94452.66;;;27.82;47.90
11347;BME280;5728;42.722;23.258;2023-07-31T09:51:59;94451.28;;;28.27;47.06
11347;BME280;5728;42.722;23.258;2023-07-31T09:54:25;94450.19;;;28.00;47.54
11347;BME280;5728;42.722;23.258;2023-07-31T09:56:54;94441.28;;;28.10;47.36
11347;BME280;5728;42.722;23.258;2023-07-31T09:59:22;94463.13;;;28.34;46.77
11347;BME280;5728;42.722;23.258;2023-07-31T10:01:49;94437.88;;;29.15;44.48
11347;BME280;5728;42.722;23.258;2023-07-31T10:04:17;94441.09;;;29.28;43.56
11347;BME280;5728;42.722;23.258;2023-07-31T10:06:48;94436.38;;;28.74;45.03
11347;BME280;5728;42.722;23.258;2023-07-31T10:09:18;94451.72;;;28.32;45.04
11347;BME280;5728;42.722;23.258;2023-07-31T10:11:48;94446.09;;;28.16;47.21
11347;BME280;5728;42.722;23.258;2023-07-31T10:14:20;94444.91;;;28.68;44.64
11347;BME280;5728;42.722;23.258;2023-07-31T10:16:47;94433.75;;;29.49;43.06
11347;BME280;5728;42.722;23.258;2023-07-31T10:19:14;94441.94;;;29.19;43.77
11347;BME280;5728;42.722;23.258;2023-07-31T10:21:42;94441.97;;;29.00;44.96
11347;BME280;5728;42.722;23.258;2023-07-31T10:24:09;94435.16;;;29.44;43.60
11347;BME280;5728;42.722;23.258;2023-07-31T10:26:37;94430.47;;;28.90;44.13
11347;BME280;5728;42.722;23.258;2023-07-31T10:29:05;94439.16;;;29.77;41.73
11347;BME280;5728;42.722;23.258;2023-07-31T10:31:35;94428.03;;;29.35;42.41
11347;BME280;5728;42.722;23.258;2023-07-31T10:34:02;94418.06;;;29.27;42.14
11347;BME280;5728;42.722;23.258;2023-07-31T10:36:30;94414.56;;;29.63;42.08
11347;BME280;5728;42.722;23.258;2023-07-31T10:38:56;94418.09;;;30.28;41.03
11347;BME280;5728;42.722;23.258;2023-07-31T10:41:29;94419.75;;;29.75;41.32
11347;BME280;5728;42.722;23.258;2023-07-31T10:43:57;94414.81;;;29.80;41.47
11347;BME280;5728;42.722;23.258;2023-07-31T10:46:24;94438.38;;;30.93;39.20
11347;BME280;5728;42.722;23.258;2023-07-31T10:48:59;94419.44;;;30.77;37.98
11347;BME280;5728;42.722;23.258;2023-07-31T10:51:32;94416.25;;;30.56;38.33
11347;BME280;5728;42.722;23.258;2023-07-31T10:54:18;94402.59;;;31.20;37.14
11347;BME280;5728;42.722;23.258;2023-07-31T10:56:45;94408.06;;;31.53;36.52
11347;BME280;5728;42.722;23.258;2023-07-31T10:59:13;94408.19;;;31.52;36.60
11347;BME280;5728;42.722;23.258;2023-07-31T11:01:52;94413.03;;;30.70;37.35
11347;BME280;5728;42.722;23.258;2023-07-31T11:04:25;94413.66;;;30.64;38.42
11347;BME280;5728;42.722;23.258;2023-07-31T11:06:56;94403.75;;;30.02;38.51
11347;BME280;5728;42.722;23.258;2023-07-31T11:09:24;94398.44;;;29.92;38.19
11347;BME280;5728;42.722;23.258;2023-07-31T11:11:53;94398.13;;;29.22;40.04
11347;BME280;5728;42.722;23.258;2023-07-31T11:14:21;94396.47;;;28.92;40.21
11347;BME280;5728;42.722;23.258;2023-07-31T11:16:49;94394.78;;;28.81;41.05
11347;BME280;5728;42.722;23.258;2023-07-31T11:19:21;94406.00;;;28.66;40.09
11347;BME280;5728;42.722;23.258;2023-07-31T11:21:50;94401.22;;;28.98;39.63
11347;BME280;5728;42.722;23.258;2023-07-31T11:24:17;94400.59;;;29.42;39.31
11347;BME280;5728;42.722;23.258;2023-07-31T11:26:49;94386.66;;;29.85;39.42
11347;BME280;5728;42.722;23.258;2023-07-31T11:29:16;94391.53;;;29.62;41.01
11347;BME280;5728;42.722;23.258;2023-07-31T11:31:43;94395.44;;;30.50;39.49
11347;BME280;5728;42.722;23.258;2023-07-31T11:34:10;94404.16;;;30.69;38.54
11347;BME280;5728;42.722;23.258;2023-07-31T11:36:37;94395.97;;;30.36;38.06
11347;BME280;5728;42.722;23.258;2023-07-31T11:39:09;94395.78;;;29.55;40.05
11347;BME280;5728;42.722;23.258;2023-07-31T11:41:36;94395.91;;;29.54;39.63
11347;BME280;5728;42.722;23.258;2023-07-31T11:44:06;94402.03;;;30.55;38.44
11347;BME280;5728;42.722;23.258;2023-07-31T11:46:33;94391.59;;;30.35;38.67
11347;BME280;5728;42.722;23.258;2023-07-31T11:49:00;94387.41;;;31.46;37.97
11347;BME280;5728;42.722;23.258;2023-07-31T11:51:28;94393.28;;;31.49;36.91
11347;BME280;5728;42.722;23.258;2023-07-31T11:53:57;94396.00;;;30.26;39.36
11347;BME280;5728;42.722;23.258;2023-07-31T11:56:26;94385.94;;;30.38;39.82
11347;BME280;5728;42.722;23.258;2023-07-31T11:58:56;94382.59;;;30.53;40.54
11347;BME280;5728;42.722;23.258;2023-07-31T12:01:24;94366.66;;;31.05;39.21
11347;BME280;5728;42.722;23.258;2023-07-31T12:03:52;94376.75;;;31.62;37.41
11347;BME280;5728;42.722;23.258;2023-07-31T12:06:19;94375.34;;;32.09;37.29
11347;BME280;5728;42.722;23.258;2023-07-31T12:08:47;94365.59;;;30.98;37.28
11347;BME280;5728;42.722;23.258;2023-07-31T12:11:14;94370.88;;;30.54;38.20
11347;BME280;5728;42.722;23.258;2023-07-31T12:13:44;94373.53;;;30.89;38.02
11347;BME280;5728;42.722;23.258;2023-07-31T12:16:11;94375.47;;;30.79;38.32
11347;BME280;5728;42.722;23.258;2023-07-31T12:18:38;94373.00;;;31.21;36.90
11347;BME280;5728;42.722;23.258;2023-07-31T12:21:07;94371.84;;;31.49;35.42
11347;BME280;5728;42.722;23.258;2023-07-31T12:23:36;94357.75;;;30.96;35.93
11347;BME280;5728;42.722;23.258;2023-07-31T12:26:04;94358.22;;;30.91;36.39
11347;BME280;5728;42.722;23.258;2023-07-31T12:28:35;94357.75;;;31.81;35.03
11347;BME280;5728;42.722;23.258;2023-07-31T12:31:04;94358.63;;;31.82;34.87
11347;BME280;5728;42.722;23.258;2023-07-31T12:33:32;94365.22;;;31.36;35.98
11347;BME280;5728;42.722;23.258;2023-07-31T12:36:01;94358.63;;;30.69;37.04
11347;BME280;5728;42.722;23.258;2023-07-31T12:38:28;94362.72;;;30.38;37.20
11347;BME280;5728;42.722;23.258;2023-07-31T12:40:54;94360.31;;;29.53;38.71
11347;BME280;5728;42.722;23.258;2023-07-31T12:43:21;94358.97;;;29.40;39.26
11347;BME280;5728;42.722;23.258;2023-07-31T12:45:48;94347.13;;;29.52;39.09
11347;BME280;5728;42.722;23.258;2023-07-31T12:48:17;94348.47;;;29.29;39.47
11347;BME280;5728;42.722;23.258;2023-07-31T12:50:44;94344.84;;;29.57;39.45
11347;BME280;5728;42.722;23.258;2023-07-31T12:53:10;94338.97;;;28.88;41.57
11347;BME280;5728;42.722;23.258;2023-07-31T12:55:37;94340.72;;;29.35;40.55
11347;BME280;5728;42.722;23.258;2023-07-31T12:58:04;94348.19;;;30.41;38.90
11347;BME280;5728;42.722;23.258;2023-07-31T13:00:30;94344.19;;;30.98;36.72